sensor_id;sensor_type;location;lat;lon;timestamp;pressure;altitude;pressure_sealevel;temperature;humidity
68107;BME280;54892;47.488;19.026;2023-02-19T00:02:34;100092.44;;;12.06;60.53
68107;BME280;54892;47.488;19.026;2023-02-19T00:05:39;100089.81;;;12.11;60.41
68107;BME280;54892;47.488;19.026;2023-02-19T00:08:42;100097.47;;;12.07;60.51
68107;BME280;54892;47.488;19.026;2023-02-19T00:11:46;100095.63;;;12.02;60.42
68107;BME280;54892;47.488;19.026;2023-02-19T00:14:49;100098.53;;;12.01;60.55
68107;BME280;54892;47.488;19.026;2023-02-19T00:17:53;100092.72;;;11.99;60.61
68107;BME280;54892;47.488;19.026;2023-02-19T00:20:57;100084.50;;;12.00;60.49
68107;BME280;54892;47.488;19.026;2023-02-19T00:24:01;100086.56;;;11.88;60.80
68107;BME280;54892;47.488;19.026;2023-02-19T00:27:04;100076.00;;;11.88;60.94
68107;BME280;54892;47.488;19.026;2023-02-19T00:30:08;100089.72;;;11.85;61.19
68107;BME280;54892;47.488;19.026;2023-02-19T00:33:11;100083.12;;;11.87;60.51
68107;BME280;54892;47.488;19.026;2023-02-19T00:36:16;100078.91;;;11.86;60.53
68107;BME280;54892;47.488;19.026;2023-02-19T00:39:19;100082.09;;;11.88;60.48
68107;BME280;54892;47.488;19.026;2023-02-19T00:42:22;100075.47;;;11.91;60.18
68107;BME280;54892;47.488;19.026;2023-02-19T00:45:26;100076.22;;;11.76;60.79
68107;BME280;54892;47.488;19.026;2023-02-19T00:48:29;100055.59;;;11.78;60.52
68107;BME280;54892;47.488;19.026;2023-02-19T00:51:35;100061.44;;;11.85;60.41
68107;BME280;54892;47.488;19.026;2023-02-19T00:54:39;100064.34;;;11.89;60.34
68107;BME280;54892;47.488;19.026;2023-02-19T00:57:42;100066.19;;;11.78;60.68
68107;BME280;54892;47.488;19.026;2023-02-19T01:00:45;100066.19;;;11.78;60.76
68107;BME280;54892;47.488;19.026;2023-02-19T01:03:49;100080.25;;;11.94;60.23
68107;BME280;54892;47.488;19.026;2023-02-19T01:06:54;100088.94;;;11.84;60.67
68107;BME280;54892;47.488;19.026;2023-02-19T01:09:57;100068.06;;;11.93;60.28
68107;BME280;54892;47.488;19.026;2023-02-19T01:13:00;100068.63;;;11.95;60.67
68107;BME280;54892;47.488;19.026;2023-02-19T01:16:05;100068.06;;;11.93;60.65
68107;BME280;54892;47.488;19.026;2023-02-19T01:19:08;100067.84;;;12.00;60.40
68107;BME280;54892;47.488;19.026;2023-02-19T01:22:13;100062.28;;;12.01;60.26
68107;BME280;54892;47.488;19.026;2023-02-19T01:25:16;100063.84;;;11.97;60.43
68107;BME280;54892;47.488;19.026;2023-02-19T01:28:19;100064.69;;;12.03;60.37
68107;BME280;54892;47.488;19.026;2023-02-19T01:31:24;100063.31;;;11.95;60.40
68107;BME280;54892;47.488;19.026;2023-02-19T01:34:28;100057.28;;;12.00;60.56
68107;BME280;54892;47.488;19.026;2023-02-19T01:37:35;100057.00;;;12.01;60.38
68107;BME280;54892;47.488;19.026;2023-02-19T01:40:38;100070.25;;;12.07;60.35
68107;BME280;54892;47.488;19.026;2023-02-19T01:43:55;100079.72;;;11.97;60.90
68107;BME280;54892;47.488;19.026;2023-02-19T01:46:58;100078.38;;;11.95;61.02
68107;BME280;54892;47.488;19.026;2023-02-19T01:50:02;100065.69;;;11.86;61.15
68107;BME280;54892;47.488;19.026;2023-02-19T01:53:06;100052.97;;;11.83;61.11
68107;BME280;54892;47.488;19.026;2023-02-19T01:56:12;100059.28;;;11.67;61.77
68107;BME280;54892;47.488;19.026;2023-02-19T01:59:18;100061.09;;;11.56;62.24
68107;BME280;54892;47.488;19.026;2023-02-19T02:02:21;100060.56;;;11.49;62.60
68107;BME280;54892;47.488;19.026;2023-02-19T02:05:37;100056.84;;;11.45;62.99
68107;BME280;54892;47.488;19.026;2023-02-19T02:08:44;100047.06;;;11.45;63.16
68107;BME280;54892;47.488;19.026;2023-02-19T02:12:14;100042.06;;;11.49;63.07
68107;BME280;54892;47.488;19.026;2023-02-19T02:15:17;100047.31;;;11.43;63.37
68107;BME280;54892;47.488;19.026;2023-02-19T02:18:27;100060.25;;;11.45;63.57
68107;BME280;54892;47.488;19.026;2023-02-19T02:21:43;100058.69;;;11.49;63.34
68107;BME280;54892;47.488;19.026;2023-02-19T02:25:08;100046.84;;;11.52;63.31
68107;BME280;54892;47.488;19.026;2023-02-19T02:28:20;100047.63;;;11.63;62.89
68107;BME280;54892;47.488;19.026;2023-02-19T02:31:27;100043.91;;;11.48;63.50
68107;BME280;54892;47.488;19.026;2023-02-19T02:34:37;100040.25;;;11.65;62.96
68107;BME280;54892;47.488;19.026;2023-02-19T02:37:43;100045.75;;;11.53;63.37
68107;BME280;54892;47.488;19.026;2023-02-19T02:40:47;100039.16;;;11.61;63.35
68107;BME280;54892;47.488;19.026;2023-02-19T02:43:50;100039.16;;;11.61;63.42
68107;BME280;54892;47.488;19.026;2023-02-19T02:46:55;100032.53;;;11.53;63.63
68107;BME280;54892;47.488;19.026;2023-02-19T02:49:58;100037.56;;;11.44;64.05
68107;BME280;54892;47.488;19.026;2023-02-19T02:53:10;100048.91;;;11.45;64.15
68107;BME280;54892;47.488;19.026;2023-02-19T02:56:31;100041.56;;;11.62;63.51
68107;BME280;54892;47.488;19.026;2023-02-19T02:59:36;100034.19;;;11.64;63.62
68107;BME280;54892;47.488;19.026;2023-02-19T03:02:42;100044.75;;;11.64;63.90
68107;BME280;54892;47.488;19.026;2023-02-19T03:05:44;100036.28;;;11.62;64.06
68107;BME280;54892;47.488;19.026;2023-02-19T03:08:55;100056.59;;;11.51;64.56
68107;BME280;54892;47.488;19.026;2023-02-19T03:12:01;100041.28;;;11.53;64.65
68107;BME280;54892;47.488;19.026;2023-02-19T03:15:23;100043.91;;;11.48;64.99
68107;BME280;54892;47.488;19.026;2023-02-19T03:18:48;100043.94;;;11.58;64.79
68107;BME280;54892;47.488;19.026;2023-02-19T03:22:09;100045.50;;;11.44;65.43
68107;BME280;54892;47.488;19.026;2023-02-19T03:25:15;100048.41;;;11.48;65.47
68107;BME280;54892;47.488;19.026;2023-02-19T03:28:37;100051.56;;;11.55;65.10
68107;BME280;54892;47.488;19.026;2023-02-19T03:31:59;100064.19;;;11.32;65.70
68107;BME280;54892;47.488;19.026;2023-02-19T03:35:08;100054.91;;;11.30;65.29
68107;BME280;54892;47.488;19.026;2023-02-19T03:38:14;100048.88;;;11.34;65.49
68107;BME280;54892;47.488;19.026;2023-02-19T03:41:20;100044.13;;;11.31;65.76
68107;BME280;54892;47.488;19.026;2023-02-19T03:44:31;100046.75;;;11.31;65.32
68107;BME280;54892;47.488;19.026;2023-02-19T03:47:40;100057.81;;;11.23;65.56
68107;BME280;54892;47.488;19.026;2023-02-19T03:50:48;100062.56;;;11.26;65.39
68107;BME280;54892;47.488;19.026;2023-02-19T03:53:54;100058.91;;;11.32;65.28
68107;BME280;54892;47.488;19.026;2023-02-19T03:57:01;100054.91;;;11.24;65.55
68107;BME280;54892;47.488;19.026;2023-02-19T04:00:09;100044.91;;;11.26;65.57
68107;BME280;54892;47.488;19.026;2023-02-19T04:03:15;100034.81;;;11.18;66.07
68107;BME280;54892;47.488;19.026;2023-02-19T04:06:24;100042.50;;;11.20;65.39
68107;BME280;54892;47.488;19.026;2023-02-19T04:09:28;100038.28;;;11.29;65.09
68107;BME280;54892;47.488;19.026;2023-02-19T04:12:33;100046.50;;;11.38;64.41
68107;BME280;54892;47.488;19.026;2023-02-19T04:15:37;100050.44;;;11.30;64.33
68107;BME280;54892;47.488;19.026;2023-02-19T04:18:42;100056.25;;;11.27;64.41
68107;BME280;54892;47.488;19.026;2023-02-19T04:21:50;100042.56;;;11.35;63.74
68107;BME280;54892;47.488;19.026;2023-02-19T04:24:54;100047.63;;;11.52;62.85
68107;BME280;54892;47.488;19.026;2023-02-19T04:27:58;100046.47;;;11.33;63.87
68107;BME280;54892;47.488;19.026;2023-02-19T04:31:01;100053.34;;;11.34;63.99
68107;BME280;54892;47.488;19.026;2023-02-19T04:34:04;100049.19;;;11.43;63.82
68107;BME280;54892;47.488;19.026;2023-02-19T04:37:09;100056.47;;;11.20;64.46
68107;BME280;54892;47.488;19.026;2023-02-19T04:40:12;100053.53;;;11.11;64.88
68107;BME280;54892;47.488;19.026;2023-02-19T04:43:15;100065.16;;;11.10;64.92
68107;BME280;54892;47.488;19.026;2023-02-19T04:46:18;100053.53;;;11.11;64.92
68107;BME280;54892;47.488;19.026;2023-02-19T04:49:21;100059.56;;;11.02;65.38
68107;BME280;54892;47.488;19.026;2023-02-19T04:52:26;100053.19;;;10.92;65.87
68107;BME280;54892;47.488;19.026;2023-02-19T04:55:29;100068.78;;;10.99;65.69
68107;BME280;54892;47.488;19.026;2023-02-19T04:58:32;100061.37;;;10.96;65.86
68107;BME280;54892;47.488;19.026;2023-02-19T05:01:36;100055.00;;;10.92;66.12
68107;BME280;54892;47.488;19.026;2023-02-19T05:04:39;100050.03;;;10.95;66.19
68107;BME280;54892;47.488;19.026;2023-02-19T05:07:44;100044.72;;;10.90;66.43
68107;BME280;54892;47.488;19.026;2023-02-19T05:10:48;100043.97;;;11.00;66.49
68107;BME280;54892;47.488;19.026;2023-02-19T05:13:51;100050.00;;;10.90;67.15
68107;BME280;54892;47.488;19.026;2023-02-19T05:16:54;100049.91;;;10.75;68.27
68107;BME280;54892;47.488;19.026;2023-02-19T05:19:58;100047.75;;;10.72;68.69
68107;BME280;54892;47.488;19.026;2023-02-19T05:23:02;100043.63;;;10.81;68.96
68107;BME280;54892;47.488;19.026;2023-02-19T05:26:06;100052.28;;;10.76;69.21
68107;BME280;54892;47.488;19.026;2023-02-19T05:29:09;100056.59;;;10.93;69.03
68107;BME280;54892;47.488;19.026;2023-02-19T05:32:12;100058.66;;;10.80;69.91
68107;BME280;54892;47.488;19.026;2023-02-19T05:35:15;100057.06;;;10.79;70.37
68107;BME280;54892;47.488;19.026;2023-02-19T05:38:22;100049.91;;;10.75;70.69
68107;BME280;54892;47.488;19.026;2023-02-19T05:41:25;100036.97;;;10.73;70.95
68107;BME280;54892;47.488;19.026;2023-02-19T05:44:29;100034.28;;;10.68;71.35
68107;BME280;54892;47.488;19.026;2023-02-19T05:47:32;100035.88;;;10.69;71.77
68107;BME280;54892;47.488;19.026;2023-02-19T05:50:35;100036.66;;;10.70;72.20
68107;BME280;54892;47.488;19.026;2023-02-19T05:53:41;100046.66;;;10.62;73.03
68107;BME280;54892;47.488;19.026;2023-02-19T05:56:45;100052.81;;;10.73;73.31
68107;BME280;54892;47.488;19.026;2023-02-19T05:59:48;100057.00;;;10.69;74.31
68107;BME280;54892;47.488;19.026;2023-02-19T06:02:51;100056.50;;;10.72;74.53
68107;BME280;54892;47.488;19.026;2023-02-19T06:05:55;100069.16;;;10.70;74.33
68107;BME280;54892;47.488;19.026;2023-02-19T06:08:59;100060.09;;;10.61;74.97
68107;BME280;54892;47.488;19.026;2023-02-19T06:12:02;100056.72;;;10.65;75.12
68107;BME280;54892;47.488;19.026;2023-02-19T06:15:06;100057.28;;;10.73;74.86
68107;BME280;54892;47.488;19.026;2023-02-19T06:18:10;100052.16;;;10.56;75.52
68107;BME280;54892;47.488;19.026;2023-02-19T06:21:13;100056.69;;;10.60;75.84
68107;BME280;54892;47.488;19.026;2023-02-19T06:24:19;100042.56;;;10.44;76.60
68107;BME280;54892;47.488;19.026;2023-02-19T06:27:22;100040.78;;;10.50;76.76
68107;BME280;54892;47.488;19.026;2023-02-19T06:30:25;100038.16;;;10.55;76.57
68107;BME280;54892;47.488;19.026;2023-02-19T06:33:29;100029.91;;;10.46;77.02
68107;BME280;54892;47.488;19.026;2023-02-19T06:36:32;100034.25;;;10.63;76.85
68107;BME280;54892;47.488;19.026;2023-02-19T06:39:37;100035.22;;;10.51;77.45
68107;BME280;54892;47.488;19.026;2023-02-19T06:42:40;100021.50;;;10.49;77.72
68107;BME280;54892;47.488;19.026;2023-02-19T06:45:43;100025.19;;;10.48;77.41
68107;BME280;54892;47.488;19.026;2023-02-19T06:48:46;100027.19;;;10.36;77.58
68107;BME280;54892;47.488;19.026;2023-02-19T06:51:50;100019.22;;;10.31;77.01
68107;BME280;54892;47.488;19.026;2023-02-19T06:54:55;100038.03;;;10.07;77.79
68107;BME280;54892;47.488;19.026;2023-02-19T06:57:58;100035.97;;;10.14;77.56
68107;BME280;54892;47.488;19.026;2023-02-19T07:01:02;100031.34;;;10.27;77.04
68107;BME280;54892;47.488;19.026;2023-02-19T07:04:05;100029.63;;;10.10;77.52
68107;BME280;54892;47.488;19.026;2023-02-19T07:07:09;100036.87;;;9.98;78.14
68107;BME280;54892;47.488;19.026;2023-02-19T07:10:14;100032.50;;;10.09;77.96
68107;BME280;54892;47.488;19.026;2023-02-19T07:13:17;100040.41;;;10.09;78.00
68107;BME280;54892;47.488;19.026;2023-02-19T07:16:21;100043.94;;;9.92;78.03
68107;BME280;54892;47.488;19.026;2023-02-19T07:19:24;100039.78;;;9.96;78.17
68107;BME280;54892;47.488;19.026;2023-02-19T07:22:27;100044.06;;;10.02;77.96
68107;BME280;54892;47.488;19.026;2023-02-19T07:25:31;100036.72;;;9.82;79.02
68107;BME280;54892;47.488;19.026;2023-02-19T07:28:35;100028.38;;;9.90;78.78
68107;BME280;54892;47.488;19.026;2023-02-19T07:31:38;100040.94;;;9.78;79.58
68107;BME280;54892;47.488;19.026;2023-02-19T07:34:41;100032.12;;;9.95;78.70
68107;BME280;54892;47.488;19.026;2023-02-19T07:37:44;100029.63;;;9.83;79.11
68107;BME280;54892;47.488;19.026;2023-02-19T07:40:52;100025.66;;;9.80;79.10
68107;BME280;54892;47.488;19.026;2023-02-19T07:43:55;100020.37;;;9.80;79.19
68107;BME280;54892;47.488;19.026;2023-02-19T07:46:58;100019.28;;;9.76;79.67
68107;BME280;54892;47.488;19.026;2023-02-19T07:50:01;100017.78;;;9.85;79.42
68107;BME280;54892;47.488;19.026;2023-02-19T07:53:05;100011.81;;;9.95;78.96
68107;BME280;54892;47.488;19.026;2023-02-19T07:56:10;100021.53;;;9.89;79.01
68107;BME280;54892;47.488;19.026;2023-02-19T07:59:14;100029.97;;;9.92;79.19
68107;BME280;54892;47.488;19.026;2023-02-19T08:02:20;100037.63;;;9.93;78.92
68107;BME280;54892;47.488;19.026;2023-02-19T08:05:41;100035.03;;;9.98;78.80
68107;BME280;54892;47.488;19.026;2023-02-19T08:08:45;100046.78;;;10.13;78.22
68107;BME280;54892;47.488;19.026;2023-02-19T08:11:49;100053.34;;;10.10;78.50
68107;BME280;54892;47.488;19.026;2023-02-19T08:15:10;100053.16;;;10.17;78.97
68107;BME280;54892;47.488;19.026;2023-02-19T08:18:13;100063.03;;;10.04;80.35
68107;BME280;54892;47.488;19.026;2023-02-19T08:21:17;100068.50;;;9.98;82.53
68107;BME280;54892;47.488;19.026;2023-02-19T08:24:21;100069.88;;;10.00;83.31
68107;BME280;54892;47.488;19.026;2023-02-19T08:27:25;100071.50;;;10.06;85.57
68107;BME280;54892;47.488;19.026;2023-02-19T08:30:29;100077.09;;;10.10;86.31
68107;BME280;54892;47.488;19.026;2023-02-19T08:33:32;100084.63;;;10.29;86.27
68107;BME280;54892;47.488;19.026;2023-02-19T08:36:36;100076.84;;;10.39;86.44
68107;BME280;54892;47.488;19.026;2023-02-19T08:39:39;100053.38;;;10.43;87.00
68107;BME280;54892;47.488;19.026;2023-02-19T08:42:43;100058.94;;;10.46;87.96
68107;BME280;54892;47.488;19.026;2023-02-19T08:45:47;100046.63;;;10.57;88.41
68107;BME280;54892;47.488;19.026;2023-02-19T08:48:50;100050.63;;;10.65;89.63
68107;BME280;54892;47.488;19.026;2023-02-19T08:51:54;100048.56;;;10.72;89.17
68107;BME280;54892;47.488;19.026;2023-02-19T08:54:57;100048.59;;;10.77;89.16
68107;BME280;54892;47.488;19.026;2023-02-19T08:58:02;100051.81;;;10.85;89.84
68107;BME280;54892;47.488;19.026;2023-02-19T09:01:06;100049.16;;;10.85;90.72
68107;BME280;54892;47.488;19.026;2023-02-19T09:04:10;100063.97;;;10.91;90.65
68107;BME280;54892;47.488;19.026;2023-02-19T09:07:13;100039.47;;;10.95;90.29
68107;BME280;54892;47.488;19.026;2023-02-19T09:10:16;100056.09;;;10.96;91.13
68107;BME280;54892;47.488;19.026;2023-02-19T09:13:22;100062.50;;;11.05;90.12
68107;BME280;54892;47.488;19.026;2023-02-19T09:16:25;100054.31;;;11.07;91.01
68107;BME280;54892;47.488;19.026;2023-02-19T09:19:29;100053.50;;;11.01;91.28
68107;BME280;54892;47.488;19.026;2023-02-19T09:22:32;100050.78;;;10.91;91.80
68107;BME280;54892;47.488;19.026;2023-02-19T09:25:36;100049.22;;;10.90;91.12
68107;BME280;54892;47.488;19.026;2023-02-19T09:28:40;100047.06;;;10.87;91.51
68107;BME280;54892;47.488;19.026;2023-02-19T09:31:44;100051.28;;;10.82;91.44
68107;BME280;54892;47.488;19.026;2023-02-19T09:34:48;100056.06;;;10.91;91.75
68107;BME280;54892;47.488;19.026;2023-02-19T09:37:51;100045.03;;;10.99;90.58
68107;BME280;54892;47.488;19.026;2023-02-19T09:40:54;100045.56;;;11.06;88.46
68107;BME280;54892;47.488;19.026;2023-02-19T09:44:01;100046.09;;;11.03;88.88
68107;BME280;54892;47.488;19.026;2023-02-19T09:47:06;100030.78;;;11.00;89.03
68107;BME280;54892;47.488;19.026;2023-02-19T09:50:16;100031.84;;;11.09;88.19
68107;BME280;54892;47.488;19.026;2023-02-19T09:53:22;100027.44;;;11.25;88.43
68107;BME280;54892;47.488;19.026;2023-02-19T09:56:27;100039.91;;;11.40;87.76
68107;BME280;54892;47.488;19.026;2023-02-19T09:59:34;100031.47;;;11.54;87.52
68107;BME280;54892;47.488;19.026;2023-02-19T10:02:41;100034.19;;;11.64;85.72
68107;BME280;54892;47.488;19.026;2023-02-19T10:05:45;100026.78;;;11.77;84.17
68107;BME280;54892;47.488;19.026;2023-02-19T10:08:50;100013.56;;;11.66;84.91
68107;BME280;54892;47.488;19.026;2023-02-19T10:11:54;100009.06;;;11.72;83.97
68107;BME280;54892;47.488;19.026;2023-02-19T10:15:04;100001.94;;;11.78;84.46
68107;BME280;54892;47.488;19.026;2023-02-19T10:18:11;99996.38;;;11.79;84.10
68107;BME280;54892;47.488;19.026;2023-02-19T10:21:26;99985.81;;;11.90;82.98
68107;BME280;54892;47.488;19.026;2023-02-19T10:24:30;99994.28;;;11.97;83.04
68107;BME280;54892;47.488;19.026;2023-02-19T10:27:33;99990.59;;;12.13;81.63
68107;BME280;54892;47.488;19.026;2023-02-19T10:30:38;99980.81;;;12.29;80.96
68107;BME280;54892;47.488;19.026;2023-02-19T10:33:47;99979.16;;;12.49;79.85
68107;BME280;54892;47.488;19.026;2023-02-19T10:36:51;99969.87;;;12.57;79.90
68107;BME280;54892;47.488;19.026;2023-02-19T10:39:54;99959.78;;;12.69;78.65
68107;BME280;54892;47.488;19.026;2023-02-19T10:42:58;99953.19;;;12.67;77.67
68107;BME280;54892;47.488;19.026;2023-02-19T10:46:05;99955.81;;;12.72;78.26
68107;BME280;54892;47.488;19.026;2023-02-19T10:49:16;99947.81;;;12.87;76.71
68107;BME280;54892;47.488;19.026;2023-02-19T10:52:23;99943.06;;;12.89;77.03
68107;BME280;54892;47.488;19.026;2023-02-19T10:55:29;99925.87;;;12.82;76.46
68107;BME280;54892;47.488;19.026;2023-02-19T10:58:33;99939.34;;;12.85;75.93
68107;BME280;54892;47.488;19.026;2023-02-19T11:01:40;99930.28;;;12.97;74.84
68107;BME280;54892;47.488;19.026;2023-02-19T11:05:02;99920.44;;;13.07;72.29
68107;BME280;54892;47.488;19.026;2023-02-19T11:08:14;99912.19;;;13.14;73.00
68107;BME280;54892;47.488;19.026;2023-02-19T11:11:27;99916.97;;;13.12;71.82
68107;BME280;54892;47.488;19.026;2023-02-19T11:14:33;99916.56;;;13.34;67.42
68107;BME280;54892;47.488;19.026;2023-02-19T11:17:37;99900.91;;;13.38;69.48
68107;BME280;54892;47.488;19.026;2023-02-19T11:20:44;99905.66;;;13.46;67.26
68107;BME280;54892;47.488;19.026;2023-02-19T11:23:49;99921.78;;;13.50;67.61
68107;BME280;54892;47.488;19.026;2023-02-19T11:26:53;99917.19;;;13.61;66.28
68107;BME280;54892;47.488;19.026;2023-02-19T11:30:21;99896.09;;;13.45;66.17
68107;BME280;54892;47.488;19.026;2023-02-19T11:33:26;99900.56;;;13.50;64.14
68107;BME280;54892;47.488;19.026;2023-02-19T11:36:30;99887.84;;;13.52;64.18
68107;BME280;54892;47.488;19.026;2023-02-19T11:39:36;99874.66;;;13.42;64.91
68107;BME280;54892;47.488;19.026;2023-02-19T11:42:41;99876.19;;;13.48;64.49
68107;BME280;54892;47.488;19.026;2023-02-19T11:45:51;99862.13;;;13.52;64.84
68107;BME280;54892;47.488;19.026;2023-02-19T11:49:03;99855.13;;;13.62;63.91
68107;BME280;54892;47.488;19.026;2023-02-19T11:52:15;99844.25;;;13.63;63.74
68107;BME280;54892;47.488;19.026;2023-02-19T11:55:22;99840.25;;;13.66;64.67
68107;BME280;54892;47.488;19.026;2023-02-19T11:58:47;99843.03;;;13.80;63.61
68107;BME280;54892;47.488;19.026;2023-02-19T12:02:12;99831.03;;;13.88;62.92
68107;BME280;54892;47.488;19.026;2023-02-19T12:05:31;99820.41;;;13.88;62.12
68107;BME280;54892;47.488;19.026;2023-02-19T12:08:47;99816.69;;;13.89;61.70
68107;BME280;54892;47.488;19.026;2023-02-19T12:11:59;99805.50;;;13.92;61.31
68107;BME280;54892;47.488;19.026;2023-02-19T12:18:37;99813.88;;;14.04;60.44
68107;BME280;54892;47.488;19.026;2023-02-19T12:21:57;99821.31;;;14.02;60.61
68107;BME280;54892;47.488;19.026;2023-02-19T12:25:20;99820.88;;;13.95;60.07
68107;BME280;54892;47.488;19.026;2023-02-19T12:28:36;99797.50;;;13.97;59.90
68107;BME280;54892;47.488;19.026;2023-02-19T12:35:28;99810.09;;;14.10;59.85
68107;BME280;54892;47.488;19.026;2023-02-19T12:38:38;99808.84;;;14.03;59.41
68107;BME280;54892;47.488;19.026;2023-02-19T12:41:47;99823.97;;;14.02;58.93
68107;BME280;54892;47.488;19.026;2023-02-19T12:44:53;99814.72;;;13.99;59.51
68107;BME280;54892;47.488;19.026;2023-02-19T12:48:04;99809.06;;;14.06;59.90
68107;BME280;54892;47.488;19.026;2023-02-19T12:51:11;99811.34;;;14.18;59.57
68107;BME280;54892;47.488;19.026;2023-02-19T12:54:20;99835.22;;;14.42;59.62
68107;BME280;54892;47.488;19.026;2023-02-19T12:57:27;99852.94;;;14.47;59.70
68107;BME280;54892;47.488;19.026;2023-02-19T13:00:34;99888.00;;;14.20;70.54
68107;BME280;54892;47.488;19.026;2023-02-19T13:03:40;99893.84;;;13.63;71.30
68107;BME280;54892;47.488;19.026;2023-02-19T13:06:51;99856.72;;;12.83;71.37
68107;BME280;54892;47.488;19.026;2023-02-19T13:10:03;99851.81;;;12.56;72.52
68107;BME280;54892;47.488;19.026;2023-02-19T13:13:09;99821.22;;;12.34;73.70
68107;BME280;54892;47.488;19.026;2023-02-19T13:16:15;99822.31;;;12.17;74.40
68107;BME280;54892;47.488;19.026;2023-02-19T13:19:20;99808.56;;;12.21;72.40
68107;BME280;54892;47.488;19.026;2023-02-19T13:22:25;99805.34;;;12.24;74.09
68107;BME280;54892;47.488;19.026;2023-02-19T13:25:53;99804.81;;;12.32;75.02
68107;BME280;54892;47.488;19.026;2023-02-19T13:29:03;99798.62;;;12.52;76.09
68107;BME280;54892;47.488;19.026;2023-02-19T13:35:49;99797.31;;;12.94;71.79
68107;BME280;54892;47.488;19.026;2023-02-19T13:38:57;99790.56;;;13.13;71.48
68107;BME280;54892;47.488;19.026;2023-02-19T13:42:03;99780.03;;;13.37;67.87
68107;BME280;54892;47.488;19.026;2023-02-19T13:45:18;99804.13;;;13.46;67.37
68107;BME280;54892;47.488;19.026;2023-02-19T13:48:24;99810.41;;;13.50;65.33
68107;BME280;54892;47.488;19.026;2023-02-19T13:51:43;99828.88;;;13.25;66.64
68107;BME280;54892;47.488;19.026;2023-02-19T13:54:51;99847.16;;;12.87;71.81
68107;BME280;54892;47.488;19.026;2023-02-19T14:05:17;99889.56;;;11.91;73.64
68107;BME280;54892;47.488;19.026;2023-02-19T14:08:49;99880.28;;;11.72;75.40
68107;BME280;54892;47.488;19.026;2023-02-19T14:12:03;99901.16;;;11.38;77.74
68107;BME280;54892;47.488;19.026;2023-02-19T14:18:40;99909.06;;;11.22;80.08
68107;BME280;54892;47.488;19.026;2023-02-19T14:21:46;99916.72;;;11.19;79.04
68107;BME280;54892;47.488;19.026;2023-02-19T14:24:53;99937.88;;;11.29;78.75
68107;BME280;54892;47.488;19.026;2023-02-19T14:28:00;99937.31;;;11.22;79.09
68107;BME280;54892;47.488;19.026;2023-02-19T14:31:12;99930.47;;;11.21;80.59
68107;BME280;54892;47.488;19.026;2023-02-19T14:34:19;99939.47;;;11.20;80.82
68107;BME280;54892;47.488;19.026;2023-02-19T14:37:27;99945.56;;;11.36;75.39
68107;BME280;54892;47.488;19.026;2023-02-19T14:40:31;99943.72;;;11.36;75.95
68107;BME280;54892;47.488;19.026;2023-02-19T14:43:38;99948.75;;;11.53;74.42
68107;BME280;54892;47.488;19.026;2023-02-19T14:46:49;99965.09;;;11.35;74.65
68107;BME280;54892;47.488;19.026;2023-02-19T14:49:54;99965.91;;;11.35;76.21
68107;BME280;54892;47.488;19.026;2023-02-19T14:53:02;99963.28;;;11.35;76.40
68107;BME280;54892;47.488;19.026;2023-02-19T14:56:13;99957.44;;;11.33;75.33
68107;BME280;54892;47.488;19.026;2023-02-19T14:59:23;99949.78;;;11.37;76.08
68107;BME280;54892;47.488;19.026;2023-02-19T15:02:28;99944.78;;;11.35;75.98
68107;BME280;54892;47.488;19.026;2023-02-19T15:05:34;99953.00;;;11.44;75.04
68107;BME280;54892;47.488;19.026;2023-02-19T15:08:44;99941.78;;;11.06;75.53
68107;BME280;54892;47.488;19.026;2023-02-19T15:11:50;99963.69;;;11.01;76.10
68107;BME280;54892;47.488;19.026;2023-02-19T15:14:55;99973.41;;;10.90;74.16
68107;BME280;54892;47.488;19.026;2023-02-19T15:18:02;99991.66;;;10.97;74.81
68107;BME280;54892;47.488;19.026;2023-02-19T15:21:13;99981.41;;;11.06;74.17
68107;BME280;54892;47.488;19.026;2023-02-19T15:24:23;99989.28;;;11.01;74.63
68107;BME280;54892;47.488;19.026;2023-02-19T15:27:28;99994.63;;;11.11;75.14
68107;BME280;54892;47.488;19.026;2023-02-19T15:30:37;99983.81;;;11.23;73.86
68107;BME280;54892;47.488;19.026;2023-02-19T15:33:49;99994.34;;;11.02;71.77
68107;BME280;54892;47.488;19.026;2023-02-19T15:36:54;99985.91;;;11.05;73.23
68107;BME280;54892;47.488;19.026;2023-02-19T15:40:02;99995.91;;;10.98;71.39
68107;BME280;54892;47.488;19.026;2023-02-19T15:43:09;99994.06;;;11.04;71.46
68107;BME280;54892;47.488;19.026;2023-02-19T15:46:22;99996.16;;;10.96;72.34
68107;BME280;54892;47.488;19.026;2023-02-19T15:49:27;99991.69;;;11.02;71.00
68107;BME280;54892;47.488;19.026;2023-02-19T15:52:37;99990.03;;;10.86;71.02
68107;BME280;54892;47.488;19.026;2023-02-19T15:55:46;99983.16;;;10.85;70.87
68107;BME280;54892;47.488;19.026;2023-02-19T15:58:54;99986.88;;;10.89;70.41
68107;BME280;54892;47.488;19.026;2023-02-19T16:02:02;99984.44;;;10.77;70.45
68107;BME280;54892;47.488;19.026;2023-02-19T16:05:11;99984.75;;;10.86;71.26
68107;BME280;54892;47.488;19.026;2023-02-19T16:08:19;99992.09;;;10.78;71.32
68107;BME280;54892;47.488;19.026;2023-02-19T16:11:28;99990.47;;;10.67;70.43
68107;BME280;54892;47.488;19.026;2023-02-19T16:14:33;100009.25;;;10.76;71.67
68107;BME280;54892;47.488;19.026;2023-02-19T16:17:40;100010.63;;;10.84;69.94
68107;BME280;54892;47.488;19.026;2023-02-19T16:20:46;99998.47;;;10.82;70.46
68107;BME280;54892;47.488;19.026;2023-02-19T16:23:52;100029.00;;;10.68;71.23
68107;BME280;54892;47.488;19.026;2023-02-19T16:27:02;100028.47;;;10.66;71.50
68107;BME280;54892;47.488;19.026;2023-02-19T16:30:09;100040.13;;;10.70;71.52